createdAt,value
2022-08-14T00:00:30.585Z,6.60
2022-08-14T00:03:01.441Z,10.40
2022-08-14T00:05:31.588Z,11.30
2022-08-14T00:08:00.393Z,10.77
2022-08-14T00:10:52.178Z,7.30
2022-08-14T00:13:18.329Z,6.90
2022-08-14T00:15:49.659Z,7.40
2022-08-14T00:19:05.439Z,6.93
2022-08-14T00:21:11.780Z,6.73
2022-08-14T00:23:40.699Z,7.00
2022-08-14T00:26:21.760Z,7.73
2022-08-14T00:28:51.642Z,7.20
2022-08-14T00:31:35.166Z,7.43
2022-08-14T00:34:36.684Z,7.30
2022-08-14T00:37:00.409Z,6.90
2022-08-14T00:39:30.445Z,7.30
2022-08-14T00:41:59.427Z,7.43
2022-08-14T00:44:32.453Z,7.33
2022-08-14T00:47:02.531Z,7.27
2022-08-14T00:49:38.341Z,7.47
2022-08-14T00:52:14.103Z,26.70
2022-08-14T00:54:47.400Z,18.07
2022-08-14T00:57:15.709Z,17.33
2022-08-14T00:59:45.622Z,8.20
2022-08-14T01:02:17.930Z,8.70
2022-08-14T01:04:53.334Z,8.20
2022-08-14T01:07:27.335Z,9.40
2022-08-14T01:09:57.345Z,9.33
2022-08-14T01:12:30.464Z,9.43
2022-08-14T01:15:02.214Z,9.83
2022-08-14T01:17:49.574Z,9.03
2022-08-14T01:20:39.941Z,9.10
2022-08-14T01:23:16.601Z,9.73
2022-08-14T01:25:52.077Z,9.33
2022-08-14T01:28:47.232Z,10.17
2022-08-14T01:31:12.553Z,10.20
2022-08-14T01:35:15.854Z,9.37
2022-08-14T01:36:39.091Z,9.97
2022-08-14T01:39:12.839Z,10.27
2022-08-14T01:41:44.421Z,9.13
2022-08-14T01:44:33.210Z,10.13
2022-08-14T01:47:11.825Z,9.70
2022-08-14T01:49:46.290Z,9.77
2022-08-14T01:52:34.391Z,10.17
2022-08-14T01:55:19.057Z,9.60
2022-08-14T01:58:28.950Z,10.77
2022-08-14T02:00:59.214Z,10.83
2022-08-14T02:03:30.916Z,10.00
2022-08-14T02:06:03.978Z,9.10
2022-08-14T02:08:53.265Z,10.53
2022-08-14T02:11:26.384Z,9.87
2022-08-14T02:13:58.999Z,9.80
2022-08-14T02:16:30.769Z,10.50
2022-08-14T02:19:02.626Z,10.30
2022-08-14T02:21:43.673Z,10.07
2022-08-14T02:24:39.131Z,10.90
2022-08-14T02:28:22.351Z,11.17
2022-08-14T02:30:01.255Z,10.40
2022-08-14T02:32:37.310Z,10.83
2022-08-14T02:35:17.963Z,11.10
2022-08-14T02:37:49.130Z,10.80
2022-08-14T02:40:18.842Z,9.90
2022-08-14T02:42:55.316Z,11.07
2022-08-14T02:45:38.712Z,10.53
2022-08-14T02:49:02.561Z,10.27
2022-08-14T02:51:02.684Z,11.37
2022-08-14T02:53:31.604Z,10.67
2022-08-14T02:56:30.076Z,10.23
2022-08-14T02:58:55.757Z,10.07
2022-08-14T03:01:31.336Z,11.50
2022-08-14T03:04:12.708Z,11.20
2022-08-14T03:07:06.149Z,10.87
2022-08-14T03:09:41.674Z,11.70
2022-08-14T03:12:30.968Z,11.00
2022-08-14T03:15:16.075Z,10.07
2022-08-14T03:17:57.636Z,11.27
2022-08-14T03:20:29.365Z,10.57
2022-08-14T03:23:00.077Z,10.60
2022-08-14T03:25:34.077Z,11.00
2022-08-14T03:28:07.261Z,10.40
2022-08-14T03:30:39.323Z,11.73
2022-08-14T03:33:10.858Z,11.30
2022-08-14T03:35:59.946Z,11.17
2022-08-14T03:39:14.271Z,11.10
2022-08-14T03:41:23.306Z,10.50
2022-08-14T03:43:57.794Z,11.30
2022-08-14T03:46:51.938Z,11.50
2022-08-14T03:49:28.568Z,11.17
2022-08-14T03:52:00.688Z,11.43
2022-08-14T03:54:29.842Z,11.40
2022-08-14T03:57:02.806Z,11.80
2022-08-14T03:59:32.283Z,11.53
2022-08-14T04:02:04.620Z,11.53
2022-08-14T04:04:53.422Z,11.47
2022-08-14T04:07:22.561Z,12.27
2022-08-14T04:09:50.854Z,11.20
2022-08-14T04:12:26.629Z,12.10
2022-08-14T04:14:55.697Z,10.60
2022-08-14T04:17:26.248Z,11.43
2022-08-14T04:19:57.613Z,12.47
2022-08-14T04:22:25.713Z,11.83
2022-08-14T04:24:54.437Z,10.60
2022-08-14T04:27:23.347Z,11.00
2022-08-14T04:29:52.034Z,13.13
2022-08-14T04:33:00.929Z,11.60
2022-08-14T04:35:11.146Z,12.13
2022-08-14T04:37:57.094Z,12.00
2022-08-14T04:40:42.919Z,12.90
2022-08-14T04:43:38.789Z,12.27
2022-08-14T04:46:10.625Z,11.20
2022-08-14T04:48:59.850Z,11.13
2022-08-14T04:51:37.542Z,11.40
2022-08-14T04:54:18.386Z,12.03
2022-08-14T04:56:46.594Z,12.50
2022-08-14T04:59:15.202Z,11.50
2022-08-14T05:01:47.851Z,12.33
2022-08-14T05:04:20.298Z,12.47
2022-08-14T05:06:53.450Z,11.73
2022-08-14T05:09:23.588Z,12.47
2022-08-14T05:11:53.112Z,12.60
2022-08-14T05:14:43.428Z,12.57
2022-08-14T05:17:11.588Z,13.17
2022-08-14T05:19:44.397Z,11.87
2022-08-14T05:22:30.099Z,13.53
2022-08-14T05:24:59.537Z,13.30
2022-08-14T05:27:31.266Z,11.77
2022-08-14T05:30:01.188Z,13.10
2022-08-14T05:32:29.988Z,11.27
2022-08-14T05:34:59.440Z,13.03
2022-08-14T05:37:31.583Z,12.67
2022-08-14T05:40:02.782Z,13.00
2022-08-14T05:42:34.249Z,13.13
2022-08-14T05:45:04.001Z,12.17
2022-08-14T05:47:38.927Z,12.60
2022-08-14T05:50:17.225Z,13.67
2022-08-14T05:52:51.159Z,11.90
2022-08-14T05:55:22.008Z,12.33
2022-08-14T05:58:22.130Z,12.70
2022-08-14T06:01:02.312Z,12.30
2022-08-14T06:03:30.681Z,12.63
2022-08-14T06:05:59.017Z,12.67
2022-08-14T06:08:41.430Z,12.93
2022-08-14T06:11:20.090Z,13.90
2022-08-14T06:13:52.015Z,13.73
2022-08-14T06:16:20.248Z,12.80
2022-08-14T06:18:52.443Z,12.70
2022-08-14T06:21:22.594Z,12.43
2022-08-14T06:23:53.310Z,12.87
2022-08-14T06:26:22.580Z,13.23
2022-08-14T06:28:59.926Z,13.90
2022-08-14T06:31:28.637Z,13.30
2022-08-14T06:35:02.635Z,14.17
2022-08-14T06:36:45.682Z,14.00
2022-08-14T06:39:17.296Z,13.60
2022-08-14T06:41:58.411Z,13.93
2022-08-14T06:44:33.134Z,13.30
2022-08-14T06:47:01.972Z,13.27
2022-08-14T06:49:31.066Z,13.10
2022-08-14T06:52:15.377Z,14.03
2022-08-14T06:54:46.766Z,12.40
2022-08-14T07:01:11.936Z,13.40
2022-08-14T07:03:58.135Z,12.60
2022-08-14T07:06:46.344Z,13.63
2022-08-14T07:09:19.859Z,13.50
2022-08-14T07:11:53.713Z,12.40
2022-08-14T07:14:22.046Z,11.70
2022-08-14T07:16:50.829Z,12.67
2022-08-14T07:19:20.743Z,12.50
2022-08-14T07:21:50.286Z,12.57
2022-08-14T07:24:26.491Z,12.43
2022-08-14T07:27:00.940Z,12.80
2022-08-14T07:29:29.394Z,12.13
2022-08-14T07:31:58.485Z,11.85
2022-08-14T07:34:40.556Z,12.02
2022-08-14T07:37:10.001Z,12.20
2022-08-14T07:39:38.584Z,12.88
2022-08-14T07:42:09.635Z,12.20
2022-08-14T07:44:46.551Z,12.52
2022-08-14T07:47:18.913Z,11.52
2022-08-14T07:50:00.245Z,10.98
2022-08-14T07:52:31.941Z,11.52
2022-08-14T07:55:05.209Z,11.25
2022-08-14T08:00:29.987Z,12.40
2022-08-14T08:03:00.741Z,12.38
2022-08-14T08:05:29.112Z,11.07
2022-08-14T08:07:58.413Z,11.50
2022-08-14T08:11:01.274Z,10.93
2022-08-14T08:13:29.227Z,12.40
2022-08-14T08:15:59.142Z,11.55
2022-08-14T08:18:31.121Z,11.85
2022-08-14T08:21:00.242Z,11.60
2022-08-14T08:23:39.852Z,11.95
2022-08-14T08:26:12.213Z,10.57
2022-08-14T08:28:44.542Z,12.43
2022-08-14T08:31:13.932Z,10.98
2022-08-14T08:33:49.395Z,11.63
2022-08-14T08:36:18.650Z,11.60
2022-08-14T08:39:18.701Z,12.13
2022-08-14T08:41:49.383Z,12.15
2022-08-14T08:44:31.602Z,11.65
2022-08-14T08:47:06.174Z,11.75
2022-08-14T08:49:48.363Z,10.43
2022-08-14T08:52:24.684Z,11.07
2022-08-14T08:54:57.367Z,10.88
2022-08-14T08:58:24.918Z,10.10
2022-08-14T09:00:58.654Z,10.55
2022-08-14T09:03:29.340Z,10.43
2022-08-14T09:06:03.672Z,10.88
2022-08-14T09:08:34.201Z,10.77
2022-08-14T09:11:20.888Z,10.40
2022-08-14T09:13:51.700Z,10.32
2022-08-14T09:16:25.815Z,10.88
2022-08-14T09:18:55.948Z,10.05
2022-08-14T09:21:31.782Z,10.25
2022-08-14T09:24:29.600Z,9.88
2022-08-14T09:26:49.921Z,9.82
2022-08-14T09:29:23.214Z,8.43
2022-08-14T09:31:57.803Z,9.75
2022-08-14T09:34:50.902Z,9.00
2022-08-14T09:37:39.143Z,9.35
2022-08-14T09:40:20.823Z,9.40
2022-08-14T09:42:58.940Z,10.02
2022-08-14T09:45:40.194Z,9.38
2022-08-14T09:48:30.253Z,8.88
2022-08-14T09:54:18.290Z,7.90
2022-08-14T09:56:45.775Z,8.43
2022-08-14T09:59:16.659Z,8.35
2022-08-14T10:01:52.700Z,8.35
2022-08-14T10:04:34.711Z,7.70
2022-08-14T10:07:04.932Z,7.72
2022-08-14T10:09:35.140Z,7.88
2022-08-14T10:12:13.339Z,8.75
2022-08-14T10:14:55.348Z,8.45
2022-08-14T10:17:27.561Z,8.30
2022-08-14T10:20:02.862Z,7.82
2022-08-14T10:23:13.697Z,8.05
2022-08-14T10:25:22.614Z,8.68
2022-08-14T10:28:01.665Z,6.45
2022-08-14T10:30:37.848Z,7.70
2022-08-14T10:33:07.078Z,7.47
2022-08-14T10:35:48.130Z,7.45
2022-08-14T10:38:27.839Z,7.45
2022-08-14T10:40:59.403Z,7.47
2022-08-14T10:43:31.762Z,7.97
2022-08-14T10:46:21.852Z,6.60
2022-08-14T10:49:04.402Z,6.15
2022-08-14T10:54:36.299Z,7.00
2022-08-14T11:00:30.036Z,8.48
2022-08-14T11:03:07.958Z,11.88
2022-08-14T11:05:43.649Z,11.60
2022-08-14T11:08:15.545Z,11.77
2022-08-14T11:10:49.180Z,11.15
2022-08-14T11:13:24.014Z,12.98
2022-08-14T11:15:56.010Z,13.27
2022-08-14T11:18:30.542Z,9.40
2022-08-14T11:21:06.824Z,7.78
2022-08-14T11:23:41.057Z,8.23
2022-08-14T11:26:14.152Z,7.35
2022-08-14T11:28:49.983Z,11.23
2022-08-14T11:31:24.173Z,10.93
2022-08-14T11:33:57.584Z,9.98
2022-08-14T11:37:02.467Z,10.55
2022-08-14T11:39:35.030Z,12.05
2022-08-14T11:42:55.491Z,13.93
2022-08-14T11:45:00.048Z,12.10
2022-08-14T11:47:35.427Z,14.75
2022-08-14T11:50:33.794Z,12.70
2022-08-14T11:53:05.875Z,12.90
2022-08-14T11:55:39.359Z,8.43
2022-08-14T11:58:34.798Z,10.38
2022-08-14T12:01:11.346Z,9.18
2022-08-14T12:03:51.493Z,8.30
2022-08-14T12:06:29.290Z,11.90
2022-08-14T12:09:13.918Z,11.57
2022-08-14T12:11:47.763Z,10.52
2022-08-14T12:14:29.855Z,10.25
2022-08-14T12:17:05.210Z,11.20
2022-08-14T12:19:56.512Z,11.55
2022-08-14T12:22:52.664Z,11.45
2022-08-14T12:25:25.273Z,10.27
2022-08-14T12:27:59.158Z,11.10
2022-08-14T12:30:39.498Z,11.00
2022-08-14T12:33:25.680Z,10.55
2022-08-14T12:35:58.139Z,19.63
2022-08-14T12:38:36.000Z,28.98
2022-08-14T12:41:06.489Z,23.98
2022-08-14T12:43:48.206Z,14.00
2022-08-14T12:46:28.401Z,11.00
2022-08-14T12:48:59.180Z,8.30
2022-08-14T12:51:31.725Z,9.40
2022-08-14T12:54:01.543Z,10.50
2022-08-14T12:56:33.817Z,14.02
2022-08-14T12:59:05.056Z,12.98
2022-08-14T13:01:59.819Z,12.10
2022-08-14T13:04:23.743Z,13.77
2022-08-14T13:06:53.166Z,11.77
2022-08-14T13:09:23.125Z,12.02
2022-08-14T13:11:59.275Z,15.65
2022-08-14T13:14:45.792Z,12.60
2022-08-14T13:17:14.563Z,12.00
2022-08-14T13:19:45.700Z,14.35
2022-08-14T13:22:28.782Z,18.27
2022-08-14T13:25:01.306Z,14.88
2022-08-14T13:27:39.255Z,15.52
2022-08-14T13:30:21.308Z,18.10
2022-08-14T13:32:54.528Z,19.83
2022-08-14T13:35:26.872Z,14.55
2022-08-14T13:37:55.642Z,14.65
2022-08-14T13:40:26.392Z,30.60
2022-08-14T13:42:56.735Z,24.00
2022-08-14T13:45:33.963Z,17.73
2022-08-14T13:48:32.569Z,14.77
2022-08-14T13:51:10.806Z,12.90
2022-08-14T13:54:06.902Z,12.98
2022-08-14T13:56:42.354Z,17.38
2022-08-14T13:59:12.346Z,17.13
2022-08-14T14:01:52.182Z,28.58
2022-08-14T14:04:20.470Z,28.63
2022-08-14T14:06:50.802Z,15.52
2022-08-14T14:09:32.215Z,15.13
2022-08-14T14:12:04.032Z,10.63
2022-08-14T14:14:51.488Z,20.90
2022-08-14T14:17:25.026Z,21.73
2022-08-14T14:19:59.145Z,20.77
2022-08-14T14:22:36.081Z,15.38
2022-08-14T14:25:21.980Z,12.15
2022-08-14T14:27:53.542Z,13.18
2022-08-14T14:30:52.609Z,14.13
2022-08-14T14:33:43.978Z,14.52
2022-08-14T14:36:05.261Z,15.75
2022-08-14T14:38:40.918Z,11.05
2022-08-14T14:41:11.034Z,10.80
2022-08-14T14:43:45.131Z,11.38
2022-08-14T14:46:16.316Z,12.27
2022-08-14T14:48:54.606Z,11.48
2022-08-14T14:51:24.356Z,9.13
2022-08-14T14:53:54.228Z,10.75
2022-08-14T14:56:48.128Z,11.43
2022-08-14T14:59:13.988Z,10.40
2022-08-14T15:01:50.609Z,9.20
2022-08-14T15:04:21.331Z,8.00
2022-08-14T15:06:50.297Z,7.47
2022-08-14T15:09:23.711Z,8.55
2022-08-14T15:11:52.302Z,9.27
2022-08-14T15:14:55.818Z,10.93
2022-08-14T15:17:12.219Z,12.10
2022-08-14T15:19:56.727Z,9.80
2022-08-14T15:22:30.896Z,10.35
2022-08-14T15:25:00.101Z,11.00
2022-08-14T15:27:32.222Z,9.65
2022-08-14T15:30:02.008Z,8.95
2022-08-14T15:32:33.123Z,9.70
2022-08-14T15:35:03.402Z,10.45
2022-08-14T15:37:42.438Z,9.52
2022-08-14T15:40:22.084Z,8.98
2022-08-14T15:42:52.042Z,9.10
2022-08-14T15:45:21.646Z,8.52
2022-08-14T15:47:52.532Z,9.98
2022-08-14T15:50:24.009Z,9.63
2022-08-14T15:52:56.868Z,8.63
2022-08-14T15:55:25.661Z,9.30
2022-08-14T15:58:08.147Z,10.32
2022-08-14T16:01:08.746Z,8.25
2022-08-14T16:03:40.972Z,7.78
2022-08-14T16:06:17.946Z,7.70
2022-08-14T16:08:57.621Z,8.10
2022-08-14T16:11:32.790Z,8.05
2022-08-14T16:14:12.480Z,8.02
2022-08-14T16:40:11.406Z,10.15
2022-08-14T16:43:04.014Z,10.07
2022-08-14T16:45:33.625Z,11.63
2022-08-14T16:48:55.045Z,11.70
2022-08-14T16:51:00.857Z,12.93
2022-08-14T17:00:51.279Z,9.55
2022-08-14T17:09:29.235Z,8.40
2022-08-14T17:12:07.509Z,8.00
2022-08-14T17:15:15.030Z,8.50
2022-08-14T17:17:49.848Z,8.20
2022-08-14T17:20:54.076Z,9.23
2022-08-14T17:23:16.243Z,8.18
2022-08-14T17:25:51.465Z,8.27
2022-08-14T17:28:52.583Z,8.13
2022-08-14T17:31:12.259Z,8.32
2022-08-14T17:33:44.275Z,8.73
2022-08-14T17:36:21.512Z,8.52
2022-08-14T17:39:13.456Z,8.70
2022-08-14T17:42:01.738Z,8.18
2022-08-14T17:44:45.180Z,7.90
2022-08-14T17:47:18.220Z,7.82
2022-08-14T17:49:51.971Z,7.78
2022-08-14T17:52:34.922Z,7.90
2022-08-14T17:55:07.443Z,11.13
2022-08-14T18:02:00.195Z,9.23
2022-08-14T18:04:28.951Z,8.73
2022-08-14T18:07:16.532Z,8.90
2022-08-14T18:09:59.083Z,8.45
2022-08-14T18:12:36.619Z,8.52
2022-08-14T18:15:16.503Z,8.85
2022-08-14T18:17:52.599Z,8.43
2022-08-14T18:21:41.217Z,8.80
2022-08-14T18:23:12.856Z,10.48
2022-08-14T18:25:49.808Z,8.85
2022-08-14T18:28:51.567Z,8.63
2022-08-14T18:31:42.119Z,9.55
2022-08-14T18:34:30.869Z,9.73
2022-08-14T18:37:17.619Z,9.88
2022-08-14T18:40:03.472Z,10.30
2022-08-14T18:42:47.598Z,8.45
2022-08-14T18:45:31.509Z,9.50
2022-08-14T18:48:51.701Z,9.77
2022-08-14T18:51:45.228Z,10.00
2022-08-14T18:54:33.110Z,11.45
2022-08-14T18:57:05.623Z,10.27
2022-08-14T19:00:23.995Z,12.23
2022-08-14T19:03:01.846Z,10.50
2022-08-14T19:06:02.544Z,10.05
2022-08-14T19:08:39.001Z,9.32
2022-08-14T19:11:54.981Z,10.13
2022-08-14T19:14:48.721Z,9.95
2022-08-14T19:17:42.882Z,10.25
2022-08-14T19:20:47.925Z,12.27
2022-08-14T19:23:22.685Z,11.07
2022-08-14T19:26:02.154Z,9.95
2022-08-14T19:28:51.255Z,10.57
2022-08-14T19:31:46.532Z,9.80
2022-08-14T19:34:48.268Z,10.55
2022-08-14T19:37:57.095Z,10.65
2022-08-14T19:40:34.538Z,10.07
2022-08-14T19:43:06.642Z,10.32
2022-08-14T19:45:35.810Z,9.23
2022-08-14T19:48:15.614Z,9.63
2022-08-14T19:50:46.775Z,9.67
2022-08-14T19:53:17.279Z,9.40
2022-08-14T19:56:05.887Z,10.27
2022-08-14T19:58:54.993Z,10.57
2022-08-14T20:01:38.132Z,11.18
2022-08-14T20:04:45.159Z,11.52
2022-08-14T20:07:00.333Z,10.38
2022-08-14T20:11:04.938Z,8.88
2022-08-14T20:12:28.923Z,9.93
2022-08-14T20:15:09.139Z,9.30
2022-08-14T20:17:40.224Z,9.43
2022-08-14T20:20:20.895Z,10.02
2022-08-14T20:23:11.368Z,8.80
2022-08-14T20:25:45.403Z,9.10
2022-08-14T20:28:32.219Z,8.37
2022-08-14T20:31:15.704Z,8.67
2022-08-14T20:34:24.819Z,8.40
2022-08-14T20:37:09.795Z,10.00
2022-08-14T20:39:44.999Z,9.20
2022-08-14T20:42:34.390Z,9.50
2022-08-14T20:45:23.821Z,9.73
2022-08-14T20:54:02.864Z,10.47
2022-08-14T20:56:35.357Z,8.93
2022-08-14T20:59:19.189Z,10.07
2022-08-14T21:01:57.342Z,9.47
2022-08-14T21:04:29.598Z,9.60
2022-08-14T21:10:44.820Z,9.90
2022-08-14T21:16:35.802Z,9.70
2022-08-14T21:34:55.256Z,9.93
2022-08-14T21:37:29.836Z,9.47
2022-08-14T21:40:02.417Z,8.43
2022-08-14T21:42:58.424Z,9.53
2022-08-14T21:45:31.299Z,9.60
2022-08-14T21:48:11.159Z,9.40
2022-08-14T21:51:01.454Z,8.80
2022-08-14T21:53:37.156Z,10.07
2022-08-14T21:56:38.469Z,9.23
2022-08-14T21:59:18.061Z,8.47
2022-08-14T22:02:00.329Z,9.33
2022-08-14T22:04:40.584Z,8.23
2022-08-14T22:07:12.121Z,8.60
2022-08-14T22:09:43.227Z,8.97
2022-08-14T22:12:58.025Z,28.50
2022-08-14T22:15:08.796Z,16.60
2022-08-14T22:17:37.710Z,10.43
2022-08-14T22:20:16.698Z,10.17
2022-08-14T22:22:45.276Z,9.37
2022-08-14T22:25:17.337Z,9.50
2022-08-14T22:27:55.901Z,13.30
2022-08-14T22:30:29.207Z,10.53
2022-08-14T22:33:00.145Z,9.90
2022-08-14T22:35:34.305Z,9.30
2022-08-14T22:38:37.687Z,9.20
2022-08-14T22:41:09.643Z,8.87
2022-08-14T22:43:44.002Z,8.17
2022-08-14T22:46:20.049Z,8.17
2022-08-14T22:48:51.151Z,9.33
2022-08-14T22:51:21.735Z,8.80
2022-08-14T22:53:53.200Z,8.23
2022-08-14T22:56:29.207Z,8.33
2022-08-14T22:59:20.525Z,9.43
2022-08-14T23:02:11.961Z,7.63
2022-08-14T23:04:54.556Z,7.60
2022-08-14T23:07:24.807Z,7.60
2022-08-14T23:09:56.241Z,7.00
2022-08-14T23:12:29.253Z,7.40
2022-08-14T23:14:59.324Z,6.73
2022-08-14T23:17:39.607Z,7.50
2022-08-14T23:20:18.981Z,7.73
2022-08-14T23:22:51.213Z,7.17
2022-08-14T23:25:57.558Z,6.53
2022-08-14T23:28:34.041Z,6.07
2022-08-14T23:31:08.175Z,7.20
2022-08-14T23:33:59.271Z,7.27
2022-08-14T23:36:32.586Z,6.53
2022-08-14T23:39:10.217Z,6.90
2022-08-14T23:41:47.057Z,6.60
2022-08-14T23:44:24.294Z,6.87
2022-08-14T23:47:00.540Z,6.33
2022-08-14T23:49:59.825Z,6.77
2022-08-14T23:53:07.419Z,6.30
2022-08-14T23:55:11.560Z,6.53
2022-08-14T23:57:43.903Z,6.70
